createdAt,value
2019-01-02T00:07:23.889Z,94.90
2019-01-02T00:10:33.015Z,94.30
2019-01-02T00:19:54.414Z,93.50
2019-01-02T00:22:44.138Z,93.70
2019-01-02T00:44:46.058Z,94.20
2019-01-02T00:47:28.728Z,94.50
2019-01-02T00:50:11.414Z,94.40
2019-01-02T00:52:53.637Z,95.40
2019-01-02T00:55:36.135Z,95.30
2019-01-02T00:58:18.225Z,96.00
2019-01-02T01:01:00.641Z,95.80
2019-01-02T01:03:42.911Z,96.70
2019-01-02T01:06:25.471Z,97.00
2019-01-02T01:09:08.469Z,97.00
2019-01-02T01:11:50.516Z,96.40
2019-01-02T01:14:33.446Z,96.00
2019-01-02T01:17:15.231Z,95.70
2019-01-02T01:19:57.985Z,96.00
2019-01-02T01:22:40.268Z,94.40
2019-01-02T01:25:22.178Z,94.60
2019-01-02T01:28:04.350Z,94.10
2019-01-02T01:30:46.390Z,93.60
2019-01-02T01:33:28.446Z,93.60
2019-01-02T01:36:10.621Z,93.70
2019-01-02T01:38:53.013Z,92.90
2019-01-02T01:41:35.409Z,92.50
2019-01-02T01:44:18.677Z,95.00
2019-01-02T01:47:01.094Z,95.70
2019-01-02T01:49:43.055Z,93.00
2019-01-02T01:52:25.088Z,93.10
2019-01-02T01:55:07.081Z,92.00
2019-01-02T01:57:49.377Z,91.20
2019-01-02T02:00:31.857Z,90.60
2019-01-02T02:03:13.878Z,90.70
2019-01-02T02:05:56.088Z,90.40
2019-01-02T02:08:38.350Z,90.20
2019-01-02T02:11:20.593Z,89.50
2019-01-02T02:14:03.897Z,88.60
2019-01-02T02:16:46.413Z,89.70
2019-01-02T02:19:28.521Z,89.60
2019-01-02T02:22:10.471Z,90.70
2019-01-02T02:24:52.581Z,90.00
2019-01-02T02:27:34.746Z,87.90
2019-01-02T02:30:17.614Z,88.10
2019-01-02T02:33:00.063Z,88.00
2019-01-02T02:35:41.954Z,89.00
2019-01-02T02:38:24.967Z,89.50
2019-01-02T02:41:07.795Z,89.10
2019-01-02T02:43:50.286Z,89.90
2019-01-02T02:46:32.937Z,89.90
2019-01-02T02:49:15.436Z,90.30
2019-01-02T02:51:57.412Z,90.00
2019-01-02T02:54:39.469Z,88.90
2019-01-02T02:57:21.970Z,88.40
2019-01-02T03:00:03.736Z,89.70
2019-01-02T03:02:45.974Z,88.60
2019-01-02T03:05:27.955Z,88.50
2019-01-02T03:08:10.369Z,88.70
2019-01-02T03:10:53.438Z,87.20
2019-01-02T03:13:36.470Z,87.00
2019-01-02T03:16:19.467Z,86.60
2019-01-02T03:19:01.537Z,88.60
2019-01-02T03:21:44.183Z,89.30
2019-01-02T03:24:26.418Z,87.10
2019-01-02T03:27:08.928Z,86.10
2019-01-02T03:29:50.863Z,86.40
2019-01-02T03:32:32.996Z,85.40
2019-01-02T03:35:15.970Z,86.10
2019-01-02T03:37:57.821Z,88.00
2019-01-02T03:40:39.596Z,85.60
2019-01-02T03:43:21.688Z,86.50
2019-01-02T03:46:04.439Z,86.90
2019-01-02T03:48:47.040Z,87.70
2019-01-02T03:51:29.207Z,87.00
2019-01-02T03:54:11.130Z,85.80
2019-01-02T03:56:53.504Z,85.30
2019-01-02T03:59:35.525Z,85.80
2019-01-02T04:02:17.359Z,87.70
2019-01-02T04:04:59.323Z,86.50
2019-01-02T04:07:42.007Z,86.30
2019-01-02T04:10:24.149Z,85.70
2019-01-02T04:13:06.295Z,86.60
2019-01-02T04:15:48.750Z,85.70
2019-01-02T04:18:31.109Z,86.90
2019-01-02T04:21:13.695Z,87.20
2019-01-02T04:23:56.021Z,87.40
2019-01-02T04:26:38.274Z,86.90
2019-01-02T04:29:20.447Z,86.10
2019-01-02T04:32:02.657Z,87.00
2019-01-02T04:34:44.665Z,87.10
2019-01-02T04:37:26.713Z,86.30
2019-01-02T04:40:08.472Z,86.40
2019-01-02T04:42:50.525Z,88.60
2019-01-02T04:45:32.525Z,87.60
2019-01-02T04:48:14.756Z,86.30
2019-01-02T04:50:56.946Z,86.60
2019-01-02T04:53:39.269Z,87.90
2019-01-02T04:56:21.585Z,87.70
2019-01-02T04:59:04.187Z,89.20
2019-01-02T05:01:46.342Z,88.70
2019-01-02T05:04:28.285Z,88.00
2019-01-02T05:07:10.804Z,89.40
2019-01-02T05:09:53.190Z,88.90
2019-01-02T05:12:35.281Z,89.60
2019-01-02T05:15:17.312Z,89.50
2019-01-02T05:17:59.969Z,89.40
2019-01-02T05:20:42.528Z,89.30
2019-01-02T05:23:25.135Z,90.00
2019-01-02T05:26:07.698Z,89.90
2019-01-02T05:28:49.909Z,89.60
2019-01-02T05:31:32.174Z,88.20
2019-01-02T05:34:14.472Z,89.40
2019-01-02T05:36:56.630Z,88.70
2019-01-02T05:39:38.726Z,87.40
2019-01-02T05:42:21.289Z,88.10
2019-01-02T05:45:03.825Z,86.90
2019-01-02T05:47:46.061Z,87.70
2019-01-02T05:50:28.031Z,88.20
2019-01-02T05:53:10.218Z,87.50
2019-01-02T05:55:52.269Z,86.50
2019-01-02T05:58:34.551Z,87.50
2019-01-02T06:01:16.495Z,86.70
2019-01-02T06:03:59.033Z,87.10
2019-01-02T06:06:41.657Z,86.80
2019-01-02T06:09:24.133Z,86.80
2019-01-02T06:12:06.037Z,86.90
2019-01-02T06:14:48.441Z,86.80
2019-01-02T06:17:30.269Z,86.50
2019-01-02T06:20:12.228Z,86.70
2019-01-02T06:22:54.329Z,86.50
2019-01-02T06:25:36.165Z,86.30
2019-01-02T06:28:18.311Z,86.80
2019-01-02T06:31:01.129Z,87.10
2019-01-02T06:33:43.434Z,87.60
2019-01-02T06:36:25.565Z,88.00
2019-01-02T06:39:08.069Z,87.20
2019-01-02T06:41:50.089Z,87.40
2019-01-02T06:44:32.793Z,87.10
2019-01-02T06:47:15.425Z,87.40
2019-01-02T06:49:58.049Z,87.90
2019-01-02T06:52:40.076Z,87.60
2019-01-02T06:55:22.934Z,87.80
2019-01-02T06:58:05.581Z,87.40
2019-01-02T07:00:48.157Z,86.90
2019-01-02T07:03:30.749Z,86.90
2019-01-02T07:06:12.703Z,87.30
2019-01-02T07:08:54.793Z,87.50
2019-01-02T07:11:36.922Z,86.80
2019-01-02T07:14:18.712Z,86.50
2019-01-02T07:17:01.178Z,87.70
2019-01-02T07:19:44.045Z,88.00
2019-01-02T07:22:26.645Z,89.40
2019-01-02T07:25:08.552Z,91.00
2019-01-02T07:27:50.664Z,91.30
2019-01-02T07:30:32.769Z,91.50
2019-01-02T07:33:15.902Z,91.60
2019-01-02T07:35:58.491Z,92.50
2019-01-02T07:38:40.973Z,92.40
2019-01-02T07:41:23.174Z,93.10
2019-01-02T07:44:05.545Z,93.00
2019-01-02T07:46:48.031Z,93.00
2019-01-02T07:49:30.288Z,93.00
2019-01-02T07:52:12.505Z,92.90
2019-01-02T07:54:54.436Z,92.40
2019-01-02T07:57:36.871Z,92.50
2019-01-02T08:00:18.801Z,92.40
2019-01-02T08:03:01.004Z,91.80
2019-01-02T08:05:43.194Z,92.30
2019-01-02T08:08:25.457Z,92.40
2019-01-02T08:11:07.912Z,92.60
2019-01-02T08:13:50.179Z,92.70
2019-01-02T08:16:32.719Z,92.40
2019-01-02T08:19:15.137Z,92.50
2019-01-02T08:21:57.561Z,92.90
2019-01-02T08:24:39.977Z,92.70
2019-01-02T08:27:21.843Z,93.30
2019-01-02T08:30:03.702Z,92.90
2019-01-02T08:32:45.722Z,92.20
2019-01-02T08:35:27.519Z,92.30
2019-01-02T08:38:09.577Z,92.00
2019-01-02T08:40:51.934Z,91.60
2019-01-02T08:43:33.807Z,91.70
2019-01-02T08:46:16.655Z,91.60
2019-01-02T08:48:59.141Z,91.90
2019-01-02T08:51:41.012Z,91.80
2019-01-02T08:54:22.841Z,91.50
2019-01-02T08:57:05.145Z,91.90
2019-01-02T08:59:47.266Z,91.80
2019-01-02T09:02:29.745Z,91.30
2019-01-02T09:05:11.510Z,91.50
2019-01-02T09:07:53.849Z,91.50
2019-01-02T09:10:36.171Z,91.20
2019-01-02T09:13:17.872Z,91.50
2019-01-02T09:16:00.086Z,91.50
2019-01-02T09:18:41.854Z,91.50
2019-01-02T09:21:24.091Z,91.50
2019-01-02T09:24:06.132Z,91.60
2019-01-02T09:26:48.578Z,91.60
2019-01-02T09:29:30.639Z,91.50
2019-01-02T09:32:13.650Z,91.20
2019-01-02T09:34:55.669Z,91.20
2019-01-02T09:37:37.747Z,91.60
2019-01-02T09:40:20.216Z,91.40
2019-01-02T09:43:02.461Z,91.10
2019-01-02T09:45:44.267Z,91.30
2019-01-02T09:48:26.773Z,91.10
2019-01-02T09:51:09.063Z,91.00
2019-01-02T09:53:50.863Z,90.50
2019-01-02T09:56:33.469Z,90.30
2019-01-02T09:59:15.308Z,90.20
2019-01-02T10:01:57.065Z,90.20
2019-01-02T10:04:39.227Z,89.70
2019-01-02T10:07:21.388Z,90.10
2019-01-02T10:10:03.426Z,90.40
2019-01-02T10:12:45.159Z,90.70
2019-01-02T10:15:27.078Z,90.80
2019-01-02T10:18:08.955Z,90.30
2019-01-02T10:20:51.757Z,90.20
2019-01-02T10:23:34.425Z,90.00
2019-01-02T10:26:17.652Z,90.00
2019-01-02T10:28:59.496Z,88.00
2019-01-02T10:31:41.804Z,89.30
2019-01-02T10:34:24.007Z,89.00
2019-01-02T10:37:06.600Z,88.50
2019-01-02T10:39:48.673Z,87.40
2019-01-02T10:42:31.351Z,88.90
2019-01-02T10:45:13.741Z,89.00
2019-01-02T10:47:55.545Z,87.90
2019-01-02T10:50:37.617Z,86.50
2019-01-02T10:53:20.097Z,87.40
2019-01-02T10:56:02.141Z,87.70
2019-01-02T10:58:44.716Z,87.60
2019-01-02T11:01:26.636Z,86.90
2019-01-02T11:04:08.793Z,88.20
2019-01-02T11:06:51.180Z,87.00
2019-01-02T11:09:33.536Z,85.40
2019-01-02T11:12:15.681Z,86.50
2019-01-02T11:14:57.628Z,87.40
2019-01-02T11:17:39.755Z,87.50
2019-01-02T11:20:22.142Z,86.90
2019-01-02T11:23:04.196Z,87.20
2019-01-02T11:25:46.560Z,86.30
2019-01-02T11:28:28.961Z,86.80
2019-01-02T11:31:13.513Z,87.40
2019-01-02T11:33:55.997Z,87.90
2019-01-02T11:36:38.305Z,88.00
2019-01-02T11:39:20.397Z,89.70
2019-01-02T11:42:03.176Z,90.40
2019-01-02T11:44:45.597Z,89.30
2019-01-02T11:47:28.057Z,89.30
2019-01-02T11:50:11.376Z,89.10
2019-01-02T11:52:53.391Z,88.50
2019-01-02T11:55:35.611Z,88.30
2019-01-02T11:58:17.446Z,89.40
2019-01-02T12:00:59.315Z,90.10
2019-01-02T12:03:41.897Z,89.90
2019-01-02T12:06:25.075Z,90.10
2019-01-02T12:09:08.110Z,91.40
2019-01-02T12:11:50.601Z,92.30
2019-01-02T12:14:32.684Z,93.10
2019-01-02T12:17:15.161Z,92.90
2019-01-02T12:19:57.642Z,93.30
2019-01-02T12:22:39.956Z,93.80
2019-01-02T12:25:22.183Z,94.80
2019-01-02T12:28:04.665Z,95.00
2019-01-02T12:30:47.309Z,95.60
2019-01-02T12:33:29.283Z,94.90
2019-01-02T12:36:11.282Z,94.20
2019-01-02T12:38:53.214Z,94.20
2019-01-02T12:41:35.722Z,94.00
2019-01-02T12:44:17.667Z,94.00
2019-01-02T12:46:59.729Z,93.90
2019-01-02T12:49:41.998Z,94.30
2019-01-02T12:52:23.705Z,94.40
2019-01-02T12:55:06.341Z,93.80
2019-01-02T12:57:48.347Z,92.30
2019-01-02T13:00:30.724Z,93.20
2019-01-02T13:03:12.874Z,92.90
2019-01-02T13:05:55.022Z,93.50
2019-01-02T13:08:37.455Z,92.80
2019-01-02T13:11:19.905Z,92.90
2019-01-02T13:14:01.913Z,93.00
2019-01-02T13:16:44.202Z,93.60
2019-01-02T13:19:26.861Z,94.10
2019-01-02T13:22:08.961Z,93.20
2019-01-02T13:24:50.796Z,93.00
2019-01-02T13:27:33.460Z,92.90
2019-01-02T13:30:15.502Z,92.60
2019-01-02T13:32:57.422Z,92.90
2019-01-02T13:35:40.424Z,92.40
2019-01-02T13:38:23.098Z,92.20
2019-01-02T13:41:05.541Z,92.90
2019-01-02T13:43:47.380Z,91.70
2019-01-02T13:46:29.531Z,90.90
2019-01-02T13:49:11.639Z,90.50
2019-01-02T13:51:53.921Z,90.40
2019-01-02T13:54:37.441Z,90.70
2019-01-02T13:57:19.936Z,90.70
2019-01-02T14:00:02.353Z,91.10
2019-01-02T14:02:44.489Z,90.80
2019-01-02T14:05:27.606Z,91.00
2019-01-02T14:08:09.423Z,92.50
2019-01-02T14:10:51.705Z,94.40
2019-01-02T14:13:33.631Z,95.00
2019-01-02T14:16:16.170Z,95.10
2019-01-02T14:18:58.066Z,95.10
2019-01-02T14:21:40.461Z,95.40
2019-01-02T14:24:22.916Z,95.70
2019-01-02T14:27:05.306Z,95.20
2019-01-02T14:29:47.496Z,95.30
2019-01-02T14:32:29.845Z,95.60
2019-01-02T14:35:12.501Z,95.00
2019-01-02T14:37:54.670Z,95.40
2019-01-02T14:40:37.191Z,95.00
2019-01-02T14:43:19.585Z,95.00
2019-01-02T14:46:01.989Z,93.80
2019-01-02T14:48:44.382Z,94.60
2019-01-02T14:51:27.124Z,95.40
2019-01-02T14:54:09.127Z,95.30
2019-01-02T14:56:51.561Z,95.30
2019-01-02T14:59:33.714Z,95.10
2019-01-02T15:02:16.049Z,95.20
2019-01-02T15:04:58.145Z,94.80
2019-01-02T15:07:40.313Z,94.80
2019-01-02T15:10:22.605Z,94.60
2019-01-02T15:13:04.547Z,94.70
2019-01-02T15:15:48.209Z,94.60
2019-01-02T15:18:30.314Z,94.20
2019-01-02T15:21:12.411Z,94.00
2019-01-02T15:23:54.702Z,93.30
2019-01-02T15:26:37.325Z,92.40
2019-01-02T15:32:03.709Z,92.40
2019-01-02T15:34:46.278Z,93.70
2019-01-02T15:37:28.087Z,93.80
2019-01-02T15:40:10.429Z,94.30
2019-01-02T15:42:52.651Z,94.20
2019-01-02T15:45:34.887Z,94.20
2019-01-02T15:48:17.340Z,94.50
2019-01-02T15:50:59.497Z,94.60
2019-01-02T15:53:41.977Z,95.30
2019-01-02T15:56:23.869Z,95.20
2019-01-02T15:59:05.997Z,95.10
2019-01-02T16:01:48.267Z,95.10
2019-01-02T16:04:30.629Z,94.50
2019-01-02T16:07:12.772Z,93.80
2019-01-02T16:09:54.855Z,93.00
2019-01-02T16:12:37.228Z,92.90
2019-01-02T16:15:19.834Z,92.50
2019-01-02T16:18:03.147Z,92.50
2019-01-02T16:20:45.425Z,92.40
2019-01-02T16:23:27.275Z,92.60
2019-01-02T16:26:09.623Z,92.50
2019-01-02T16:28:51.831Z,92.30
2019-01-02T16:31:34.423Z,92.20
2019-01-02T16:34:16.449Z,92.00
2019-01-02T16:36:58.763Z,92.00
2019-01-02T16:39:41.207Z,91.60
2019-01-02T16:42:23.051Z,91.80
2019-01-02T16:45:05.061Z,91.80
2019-01-02T16:47:47.303Z,92.00
2019-01-02T16:50:29.757Z,91.70
2019-01-02T16:53:12.095Z,91.60
2019-01-02T16:55:54.567Z,91.30
2019-01-02T16:58:36.629Z,91.30
2019-01-02T17:01:20.474Z,91.10
2019-01-02T17:04:02.598Z,91.00
2019-01-02T17:06:44.663Z,90.30
2019-01-02T17:09:26.596Z,90.60
2019-01-02T17:12:08.777Z,90.10
2019-01-02T17:14:51.833Z,90.50
2019-01-02T17:17:34.047Z,90.20
2019-01-02T17:20:16.433Z,90.40
2019-01-02T17:22:58.808Z,90.10
2019-01-02T17:25:41.261Z,90.00
2019-01-02T17:28:23.600Z,89.10
2019-01-02T17:31:06.269Z,89.10
2019-01-02T17:33:48.145Z,88.60
2019-01-02T17:36:30.095Z,88.80
2019-01-02T17:39:12.351Z,88.30
2019-01-02T17:41:54.422Z,88.70
2019-01-02T17:44:36.243Z,89.90
2019-01-02T17:47:19.888Z,90.00
2019-01-02T17:50:02.220Z,89.90
2019-01-02T17:52:43.945Z,90.10
2019-01-02T17:55:25.903Z,88.60
2019-01-02T17:58:07.662Z,87.70
2019-01-02T18:00:49.582Z,88.00
2019-01-02T18:03:31.368Z,86.80
2019-01-02T18:06:13.873Z,88.10
2019-01-02T18:08:56.169Z,87.70
2019-01-02T18:11:38.681Z,88.40
2019-01-02T18:14:20.746Z,88.00
2019-01-02T18:17:02.599Z,87.40
2019-01-02T18:19:44.423Z,86.70
2019-01-02T18:22:26.683Z,87.20
2019-01-02T18:25:09.079Z,86.40
2019-01-02T18:27:51.096Z,86.80
2019-01-02T18:30:33.578Z,85.70
2019-01-02T18:33:15.939Z,86.50
2019-01-02T18:35:58.697Z,86.20
2019-01-02T18:38:41.133Z,86.20
2019-01-02T18:41:23.229Z,85.80
2019-01-02T18:44:05.784Z,85.70
2019-01-02T18:46:47.615Z,85.40
2019-01-02T18:49:30.096Z,85.30
2019-01-02T18:52:11.835Z,85.00
2019-01-02T18:54:54.106Z,84.50
2019-01-02T18:57:37.278Z,84.20
2019-01-02T19:00:19.777Z,83.80
2019-01-02T19:03:01.873Z,83.90
2019-01-02T19:05:43.677Z,83.10
2019-01-02T19:08:26.209Z,84.20
2019-01-02T19:11:08.571Z,84.30
2019-01-02T19:13:50.495Z,84.80
2019-01-02T19:16:32.402Z,84.40
2019-01-02T19:19:14.717Z,85.20
2019-01-02T19:21:56.832Z,85.30
2019-01-02T19:24:39.251Z,86.00
2019-01-02T19:27:21.328Z,86.10
2019-01-02T19:30:03.908Z,82.50
2019-01-02T19:32:46.030Z,84.60
2019-01-02T19:35:28.358Z,85.30
2019-01-02T19:38:10.381Z,85.20
2019-01-02T19:40:52.189Z,85.50
2019-01-02T19:43:34.509Z,84.80
2019-01-02T19:46:16.472Z,81.50
2019-01-02T19:48:58.614Z,80.00
2019-01-02T19:51:40.571Z,80.70
2019-01-02T19:54:22.635Z,80.30
2019-01-02T19:57:04.486Z,81.20
2019-01-02T19:59:46.523Z,78.20
2019-01-02T20:02:28.494Z,80.60
2019-01-02T20:05:10.428Z,79.20
2019-01-02T20:07:52.784Z,80.20
2019-01-02T20:10:35.075Z,81.30
2019-01-02T20:13:17.425Z,80.70
2019-01-02T20:15:59.655Z,79.20
2019-01-02T20:18:41.793Z,78.00
2019-01-02T20:21:23.868Z,78.00
2019-01-02T20:24:06.035Z,77.40
2019-01-02T20:26:48.144Z,78.50
2019-01-02T20:29:30.209Z,77.10
2019-01-02T20:32:12.781Z,77.80
2019-01-02T20:34:55.303Z,78.20
2019-01-02T20:37:37.909Z,77.20
2019-01-02T20:40:19.671Z,77.50
2019-01-02T20:43:01.707Z,79.10
2019-01-02T20:45:43.965Z,79.70
2019-01-02T20:48:26.315Z,80.00
2019-01-02T20:51:08.589Z,79.70
2019-01-02T20:53:50.359Z,78.70
2019-01-02T20:56:32.404Z,78.60
2019-01-02T20:59:14.207Z,79.20
2019-01-02T21:01:56.821Z,79.30
2019-01-02T21:04:39.001Z,79.90
2019-01-02T21:07:21.685Z,80.40
2019-01-02T21:10:03.661Z,80.50
2019-01-02T21:12:46.275Z,80.30
2019-01-02T21:15:28.559Z,80.50
2019-01-02T21:18:10.909Z,80.50
2019-01-02T21:20:53.555Z,80.60
2019-01-02T21:23:36.329Z,79.60
2019-01-02T21:26:18.331Z,80.60
2019-01-02T21:29:00.537Z,79.60
2019-01-02T21:31:31.142Z,78.60
2019-01-02T21:34:02.648Z,79.20
2019-01-02T21:36:33.411Z,78.90
2019-01-02T21:45:52.779Z,79.40
2019-01-02T21:55:16.963Z,78.60
2019-01-02T22:04:23.273Z,77.60
2019-01-02T22:17:40.451Z,78.20
2019-01-02T22:20:50.230Z,79.40
2019-01-02T22:23:59.407Z,78.70
2019-01-02T22:27:08.629Z,76.80
2019-01-02T22:30:10.693Z,73.60
2019-01-02T22:32:53.325Z,74.40
2019-01-02T22:35:35.803Z,74.40
2019-01-02T22:38:17.848Z,75.10
2019-01-02T22:41:00.198Z,74.40
2019-01-02T22:43:42.713Z,74.60
2019-01-02T22:46:25.030Z,75.60
2019-01-02T22:49:07.013Z,75.30
2019-01-02T22:51:49.131Z,73.30
2019-01-02T22:54:31.657Z,73.80
2019-01-02T22:57:13.655Z,74.50
2019-01-02T22:59:55.995Z,73.10
2019-01-02T23:02:45.774Z,72.60
2019-01-02T23:09:12.967Z,73.30
2019-01-02T23:12:20.307Z,74.80
2019-01-02T23:15:46.341Z,74.70
2019-01-02T23:22:13.104Z,74.60
2019-01-02T23:25:37.049Z,74.80
2019-01-02T23:29:00.174Z,74.90
2019-01-02T23:35:53.349Z,76.10
2019-01-02T23:39:01.953Z,75.80
2019-01-02T23:42:10.465Z,75.20
2019-01-02T23:45:19.351Z,75.40
2019-01-02T23:48:27.805Z,75.80
2019-01-02T23:51:36.451Z,74.90
2019-01-02T23:57:43.485Z,75.40
